createdAt,value
2022-12-19T00:01:35.834Z,-3.40
2022-12-19T00:04:07.060Z,-3.40
2022-12-19T00:06:36.761Z,-3.50
2022-12-19T00:09:03.588Z,-3.50
2022-12-19T00:11:30.874Z,-3.40
2022-12-19T00:13:58.297Z,-3.40
2022-12-19T00:16:28.246Z,-3.50
2022-12-19T00:18:57.609Z,-3.50
2022-12-19T00:21:28.115Z,-3.50
2022-12-19T00:23:55.318Z,-3.60
2022-12-19T00:26:27.494Z,-3.60
2022-12-19T00:28:59.788Z,-3.60
2022-12-19T00:31:29.043Z,-3.70
2022-12-19T00:33:56.031Z,-3.70
2022-12-19T00:36:25.426Z,-3.70
2022-12-19T00:38:53.785Z,-3.70
2022-12-19T00:41:32.930Z,-3.70
2022-12-19T00:44:02.371Z,-3.70
2022-12-19T00:46:30.954Z,-3.70
2022-12-19T00:48:57.939Z,-3.70
2022-12-19T00:51:27.729Z,-3.70
2022-12-19T00:53:56.525Z,-3.70
2022-12-19T00:56:25.890Z,-3.80
2022-12-19T00:58:53.204Z,-3.90
2022-12-19T01:01:26.167Z,-3.90
2022-12-19T01:04:26.779Z,-3.90
2022-12-19T01:06:40.681Z,-3.90
2022-12-19T01:09:08.131Z,-3.90
2022-12-19T01:11:53.417Z,-3.90
2022-12-19T01:14:22.990Z,-3.90
2022-12-19T01:16:51.129Z,-3.80
2022-12-19T01:19:17.989Z,-3.80
2022-12-19T01:21:44.700Z,-3.80
2022-12-19T01:24:11.976Z,-3.70
2022-12-19T01:26:40.408Z,-3.70
2022-12-19T01:29:07.175Z,-3.70
2022-12-19T01:31:34.172Z,-3.60
2022-12-19T01:34:01.486Z,-3.70
2022-12-19T01:36:29.773Z,-3.60
2022-12-19T01:38:58.152Z,-3.60
2022-12-19T01:41:25.410Z,-3.70
2022-12-19T01:44:03.935Z,-3.60
2022-12-19T01:46:39.951Z,-3.60
2022-12-19T01:49:20.955Z,-3.50
2022-12-19T01:51:55.384Z,-3.50
2022-12-19T01:54:26.942Z,-3.50
2022-12-19T01:57:00.461Z,-3.50
2022-12-19T01:59:34.061Z,-3.60
2022-12-19T02:02:10.943Z,-3.60
2022-12-19T02:04:40.708Z,-3.50
2022-12-19T02:07:15.616Z,-3.50
2022-12-19T02:09:45.711Z,-3.50
2022-12-19T02:12:12.958Z,-3.40
2022-12-19T02:14:40.321Z,-3.50
2022-12-19T02:17:18.129Z,-3.50
2022-12-19T02:20:12.263Z,-3.50
2022-12-19T02:22:50.704Z,-3.50
2022-12-19T02:25:51.255Z,-3.50
2022-12-19T02:28:31.753Z,-3.50
2022-12-19T02:31:19.777Z,-3.60
2022-12-19T02:34:09.502Z,-3.60
2022-12-19T02:37:03.492Z,-3.60
2022-12-19T02:39:43.849Z,-3.60
2022-12-19T02:42:15.212Z,-3.60
2022-12-19T02:44:50.020Z,-3.60
2022-12-19T02:47:17.407Z,-3.50
2022-12-19T02:49:44.216Z,-3.60
2022-12-19T02:52:21.176Z,-3.60
2022-12-19T02:54:50.804Z,-3.60
2022-12-19T02:57:28.278Z,-3.60
2022-12-19T02:59:55.218Z,-3.20
2022-12-19T03:03:00.695Z,-3.60
2022-12-19T03:05:49.773Z,-3.70
2022-12-19T03:08:27.922Z,-3.70
2022-12-19T03:11:05.242Z,-3.70
2022-12-19T03:13:39.281Z,-3.70
2022-12-19T03:16:09.590Z,-3.70
2022-12-19T03:18:36.533Z,-3.60
2022-12-19T03:21:25.893Z,-3.60
2022-12-19T03:23:55.544Z,-3.60
2022-12-19T03:26:27.711Z,-3.60
2022-12-19T03:29:15.995Z,-3.60
2022-12-19T03:31:44.911Z,-3.50
2022-12-19T03:34:51.796Z,-3.50
2022-12-19T03:37:24.342Z,-3.50
2022-12-19T03:39:57.567Z,-3.50
2022-12-19T03:42:46.244Z,-3.50
2022-12-19T03:45:16.067Z,-3.50
2022-12-19T03:47:50.960Z,-3.40
2022-12-19T03:50:18.618Z,-3.40
2022-12-19T03:52:59.978Z,-3.40
2022-12-19T03:55:29.213Z,-3.40
2022-12-19T03:58:09.692Z,-3.40
2022-12-19T04:00:39.915Z,-3.40
2022-12-19T04:03:08.195Z,-3.40
2022-12-19T04:05:37.036Z,-3.40
2022-12-19T04:08:07.707Z,-3.30
2022-12-19T04:10:46.997Z,-3.40
2022-12-19T04:13:17.957Z,-3.30
2022-12-19T04:16:08.342Z,-3.30
2022-12-19T04:18:36.275Z,-3.20
2022-12-19T04:21:08.894Z,-3.30
2022-12-19T04:23:42.647Z,-3.30
2022-12-19T04:26:11.075Z,-3.30
2022-12-19T04:28:48.372Z,-3.30
2022-12-19T04:31:16.075Z,-3.30
2022-12-19T04:33:43.100Z,-3.30
2022-12-19T04:36:10.998Z,-3.30
2022-12-19T04:38:37.726Z,-3.30
2022-12-19T04:41:04.445Z,-3.30
2022-12-19T04:43:31.408Z,-3.30
2022-12-19T04:45:58.120Z,-3.20
2022-12-19T04:48:25.405Z,-3.20
2022-12-19T04:50:52.387Z,-3.20
2022-12-19T04:53:19.164Z,-3.20
2022-12-19T04:55:45.848Z,-3.20
2022-12-19T04:58:16.334Z,-3.20
2022-12-19T05:00:45.817Z,-3.20
2022-12-19T05:03:12.807Z,-3.20
2022-12-19T05:05:40.721Z,-3.20
2022-12-19T05:08:07.775Z,-3.20
2022-12-19T05:10:35.963Z,-3.20
2022-12-19T05:13:02.669Z,-3.20
2022-12-19T05:15:29.668Z,-3.20
2022-12-19T05:17:57.603Z,-3.20
2022-12-19T05:20:24.297Z,-3.10
2022-12-19T05:22:51.013Z,-3.10
2022-12-19T05:25:17.725Z,-3.10
2022-12-19T05:27:44.392Z,-3.10
2022-12-19T05:30:11.608Z,-3.10
2022-12-19T05:32:38.824Z,-3.10
2022-12-19T05:35:06.037Z,-3.10
2022-12-19T05:37:35.051Z,-3.00
2022-12-19T05:40:01.911Z,-3.00
2022-12-19T05:42:28.606Z,-3.00
2022-12-19T05:44:55.304Z,-2.90
2022-12-19T05:47:22.054Z,-3.00
2022-12-19T05:49:48.756Z,-2.90
2022-12-19T05:52:15.432Z,-2.90
2022-12-19T05:54:42.172Z,-2.90
2022-12-19T05:57:08.856Z,-3.00
2022-12-19T05:59:35.549Z,-3.00
2022-12-19T06:02:02.413Z,-3.10
2022-12-19T06:04:30.046Z,-3.00
2022-12-19T06:06:56.782Z,-3.00
2022-12-19T06:09:23.561Z,-3.00
2022-12-19T06:11:51.137Z,-3.00
2022-12-19T06:14:17.942Z,-3.00
2022-12-19T06:16:44.757Z,-3.00
2022-12-19T06:19:11.479Z,-3.00
2022-12-19T06:21:45.482Z,-3.00
2022-12-19T06:24:14.575Z,-2.90
2022-12-19T06:26:41.446Z,-2.90
2022-12-19T06:29:08.200Z,-2.90
2022-12-19T06:31:35.020Z,-2.90
2022-12-19T06:34:02.423Z,-2.90
2022-12-19T06:36:30.710Z,-2.80
2022-12-19T06:38:58.460Z,-2.90
2022-12-19T06:41:44.152Z,-2.80
2022-12-19T06:44:13.088Z,-2.80
2022-12-19T06:46:40.821Z,-2.80
2022-12-19T06:49:07.841Z,-2.80
2022-12-19T06:51:34.960Z,-2.70
2022-12-19T06:54:02.015Z,-2.80
2022-12-19T06:56:33.902Z,-2.70
2022-12-19T06:59:00.855Z,-2.70
2022-12-19T07:01:34.788Z,-2.70
2022-12-19T07:04:01.744Z,-2.60
2022-12-19T07:06:28.607Z,-2.60
2022-12-19T07:08:55.326Z,-2.60
2022-12-19T07:11:22.106Z,-2.60
2022-12-19T07:13:48.773Z,-2.60
2022-12-19T07:16:15.599Z,-2.60
2022-12-19T07:18:42.626Z,-2.50
2022-12-19T07:21:13.853Z,-2.50
2022-12-19T07:23:41.267Z,-2.50
2022-12-19T07:26:08.423Z,-2.40
2022-12-19T07:28:35.910Z,-2.40
2022-12-19T07:31:02.655Z,-2.40
2022-12-19T07:33:29.382Z,-2.40
2022-12-19T07:35:56.091Z,-2.40
2022-12-19T07:38:22.836Z,-2.30
2022-12-19T07:40:49.568Z,-2.30
2022-12-19T07:43:16.323Z,-2.30
2022-12-19T07:45:43.133Z,-2.20
2022-12-19T07:48:10.233Z,-2.20
2022-12-19T07:50:36.992Z,-2.10
2022-12-19T07:53:03.741Z,-2.10
2022-12-19T07:55:30.580Z,-2.10
2022-12-19T07:57:57.358Z,-2.00
2022-12-19T08:00:24.116Z,-1.90
2022-12-19T08:02:50.975Z,-2.00
2022-12-19T08:05:17.874Z,-1.90
2022-12-19T08:07:44.727Z,-1.90
2022-12-19T08:10:12.649Z,-1.80
2022-12-19T08:12:39.527Z,-1.80
2022-12-19T08:15:07.790Z,-1.70
2022-12-19T08:17:35.437Z,-1.60
2022-12-19T08:20:02.355Z,-1.60
2022-12-19T08:22:30.595Z,-1.60
2022-12-19T08:24:57.704Z,-1.60
2022-12-19T08:27:24.967Z,-1.50
2022-12-19T08:29:52.180Z,-1.50
2022-12-19T08:32:21.391Z,-1.40
2022-12-19T08:34:50.114Z,-1.40
2022-12-19T08:37:17.486Z,-1.30
2022-12-19T08:39:44.448Z,-1.30
2022-12-19T08:42:11.221Z,-1.30
2022-12-19T08:44:37.914Z,-1.20
2022-12-19T08:47:04.823Z,-1.20
2022-12-19T08:49:31.549Z,-1.10
2022-12-19T08:51:58.403Z,-1.00
2022-12-19T08:54:25.138Z,-1.00
2022-12-19T08:56:51.856Z,-0.90
2022-12-19T08:59:30.368Z,-0.90
2022-12-19T09:01:59.595Z,-0.90
2022-12-19T09:05:58.787Z,-0.90
2022-12-19T09:07:15.744Z,-0.90
2022-12-19T09:09:43.705Z,-0.80
2022-12-19T09:12:11.819Z,-0.80
2022-12-19T09:14:38.495Z,-0.80
2022-12-19T09:17:05.261Z,-0.80
2022-12-19T09:19:32.382Z,-0.70
2022-12-19T09:21:59.247Z,-0.80
2022-12-19T09:24:26.324Z,-0.80
2022-12-19T09:26:53.459Z,-0.70
2022-12-19T09:29:21.744Z,-0.70
2022-12-19T09:31:55.394Z,-0.70
2022-12-19T09:34:36.942Z,-0.60
2022-12-19T09:37:15.824Z,-0.60
2022-12-19T09:39:45.446Z,-0.50
2022-12-19T09:42:15.016Z,-0.50
2022-12-19T09:45:02.256Z,-0.40
2022-12-19T09:47:33.919Z,-0.50
2022-12-19T09:50:02.276Z,-0.50
2022-12-19T09:52:35.282Z,-0.40
2022-12-19T09:55:44.913Z,-0.50
2022-12-19T09:58:32.573Z,-0.50
2022-12-19T10:01:04.475Z,-0.50
2022-12-19T10:03:40.042Z,-0.50
2022-12-19T10:07:09.440Z,-0.40
2022-12-19T10:11:35.792Z,-0.40
2022-12-19T10:12:44.838Z,-0.30
2022-12-19T10:15:40.613Z,-0.20
2022-12-19T10:18:32.038Z,-0.20
2022-12-19T10:21:20.596Z,0.00
2022-12-19T10:24:38.093Z,0.00
2022-12-19T10:27:26.490Z,0.10
2022-12-19T10:30:11.124Z,0.20
2022-12-19T10:32:43.911Z,0.20
2022-12-19T10:35:17.491Z,0.10
2022-12-19T10:38:19.459Z,0.20
2022-12-19T10:40:52.045Z,0.30
2022-12-19T10:43:52.246Z,0.40
2022-12-19T10:46:37.615Z,0.40
2022-12-19T10:49:21.881Z,0.60
2022-12-19T10:52:11.218Z,0.60
2022-12-19T10:54:37.977Z,0.60
2022-12-19T10:57:19.854Z,0.60
2022-12-19T11:00:14.532Z,0.50
2022-12-19T11:02:47.580Z,0.50
2022-12-19T11:05:23.459Z,0.50
2022-12-19T11:08:08.904Z,0.60
2022-12-19T11:11:53.727Z,0.60
2022-12-19T11:19:30.243Z,0.70
2022-12-19T11:22:17.331Z,0.80
2022-12-19T11:29:16.904Z,0.80
2022-12-19T11:29:31.324Z,0.80
2022-12-19T11:30:46.601Z,0.90
2022-12-19T11:30:47.279Z,0.80
2022-12-19T11:34:23.883Z,0.90
2022-12-19T11:37:14.601Z,1.00
2022-12-19T11:40:13.632Z,1.00
2022-12-19T11:43:42.750Z,1.10
2022-12-19T11:46:04.527Z,1.20
2022-12-19T11:48:44.434Z,1.20
2022-12-19T11:52:02.063Z,1.20
2022-12-19T11:54:59.213Z,1.10
2022-12-19T11:57:27.180Z,1.10
2022-12-19T11:59:55.644Z,1.10
2022-12-19T12:02:42.115Z,1.10
2022-12-19T12:05:32.916Z,1.00
2022-12-19T12:11:40.882Z,1.00
2022-12-19T12:20:25.304Z,1.00
2022-12-19T12:25:09.740Z,1.10
2022-12-19T12:31:21.024Z,1.10
2022-12-19T12:31:25.831Z,1.10
2022-12-19T12:31:41.758Z,1.20
2022-12-19T12:32:02.057Z,1.30
2022-12-19T12:32:02.262Z,1.10
2022-12-19T12:35:38.454Z,1.30
2022-12-19T12:38:45.590Z,1.40
2022-12-19T12:41:58.769Z,1.40
2022-12-19T12:44:32.641Z,1.40
2022-12-19T12:47:06.783Z,1.40
2022-12-19T12:50:03.751Z,1.30
2022-12-19T12:52:39.199Z,1.30
2022-12-19T12:55:15.729Z,1.40
2022-12-19T12:57:42.516Z,1.40
2022-12-19T13:00:15.736Z,1.40
2022-12-19T13:02:47.399Z,1.40
2022-12-19T13:05:32.347Z,1.60
2022-12-19T13:07:59.511Z,1.60
2022-12-19T13:10:32.216Z,1.60
2022-12-19T13:13:09.369Z,1.70
2022-12-19T13:15:43.405Z,1.70
2022-12-19T13:18:31.494Z,1.70
2022-12-19T13:20:59.846Z,1.70
2022-12-19T13:23:26.496Z,1.80
2022-12-19T13:25:54.556Z,1.90
2022-12-19T13:28:21.280Z,1.90
2022-12-19T13:31:21.075Z,1.90
2022-12-19T13:33:56.000Z,1.90
2022-12-19T13:39:47.804Z,1.90
2022-12-19T13:40:07.512Z,1.90
2022-12-19T13:43:10.956Z,1.80
2022-12-19T13:45:41.393Z,1.80
2022-12-19T13:48:18.625Z,1.70
2022-12-19T13:50:49.604Z,1.70
2022-12-19T13:53:22.867Z,1.70
2022-12-19T13:55:50.024Z,1.70
2022-12-19T13:58:40.028Z,1.70
2022-12-19T14:01:20.901Z,1.70
2022-12-19T14:03:50.451Z,1.70
2022-12-19T14:06:38.327Z,1.70
2022-12-19T14:11:27.109Z,1.80
2022-12-19T14:13:57.406Z,1.70
2022-12-19T14:15:43.979Z,1.70
2022-12-19T14:18:45.356Z,1.70
2022-12-19T14:22:10.511Z,1.70
2022-12-19T14:24:11.071Z,1.70
2022-12-19T14:28:26.981Z,1.70
2022-12-19T14:30:28.283Z,1.70
2022-12-19T14:33:21.991Z,1.70
2022-12-19T14:36:09.920Z,1.70
2022-12-19T14:39:26.828Z,1.70
2022-12-19T14:41:09.470Z,1.70
2022-12-19T14:44:00.007Z,1.70
2022-12-19T14:54:01.421Z,1.70
2022-12-19T14:54:06.893Z,1.70
2022-12-19T14:54:21.294Z,1.70
2022-12-19T14:56:16.610Z,1.60
2022-12-19T14:58:56.025Z,1.60
2022-12-19T15:01:32.319Z,1.60
2022-12-19T15:04:50.711Z,1.60
2022-12-19T15:07:11.982Z,1.60
2022-12-19T15:11:05.011Z,1.50
2022-12-19T15:14:54.922Z,1.50
2022-12-19T15:16:06.113Z,1.50
2022-12-19T15:18:33.033Z,1.40
2022-12-19T15:21:09.627Z,1.40
2022-12-19T15:23:36.505Z,1.40
2022-12-19T15:26:13.041Z,1.30
2022-12-19T15:28:51.414Z,1.30
2022-12-19T15:31:18.182Z,1.30
2022-12-19T15:34:14.382Z,1.30
2022-12-19T15:36:31.787Z,1.30
2022-12-19T15:38:58.979Z,1.30
2022-12-19T15:41:25.801Z,1.40
2022-12-19T15:44:03.533Z,1.30
2022-12-19T15:46:31.528Z,1.40
2022-12-19T15:48:58.317Z,1.30
2022-12-19T15:51:25.656Z,1.40
2022-12-19T15:53:52.383Z,1.40
2022-12-19T15:56:28.923Z,1.40
2022-12-19T15:58:58.453Z,1.40
2022-12-19T16:01:26.609Z,1.40
2022-12-19T16:03:54.048Z,1.40
2022-12-19T16:06:21.040Z,1.30
2022-12-19T16:08:47.833Z,1.40
2022-12-19T16:11:24.401Z,1.40
2022-12-19T16:13:55.600Z,1.40
2022-12-19T16:16:22.736Z,1.40
2022-12-19T16:18:49.716Z,1.50
2022-12-19T16:21:27.366Z,1.60
2022-12-19T16:23:58.137Z,1.60
2022-12-19T16:26:32.777Z,1.60
2022-12-19T16:28:59.723Z,1.60
2022-12-19T16:31:27.643Z,1.60
2022-12-19T16:33:54.542Z,1.60
2022-12-19T16:36:21.889Z,1.60
2022-12-19T16:38:48.903Z,1.60
2022-12-19T16:41:19.615Z,1.60
2022-12-19T16:43:46.711Z,1.60
2022-12-19T16:46:18.355Z,1.50
2022-12-19T16:48:45.253Z,1.50
2022-12-19T16:51:22.197Z,1.50
2022-12-19T16:53:50.693Z,1.60
2022-12-19T16:56:31.341Z,1.60
2022-12-19T16:59:01.233Z,1.60
2022-12-19T17:01:28.718Z,1.60
2022-12-19T17:03:55.551Z,1.60
2022-12-19T17:06:23.217Z,1.50
2022-12-19T17:08:49.953Z,1.50
2022-12-19T17:11:23.076Z,1.50
2022-12-19T17:13:52.746Z,1.40
2022-12-19T17:16:19.702Z,1.40
2022-12-19T17:18:47.285Z,1.40
2022-12-19T17:21:20.261Z,1.40
2022-12-19T17:23:47.936Z,1.30
2022-12-19T17:26:18.031Z,1.30
2022-12-19T17:28:48.133Z,1.30
2022-12-19T17:31:25.740Z,1.30
2022-12-19T17:33:54.991Z,1.30
2022-12-19T17:36:28.704Z,1.20
2022-12-19T17:38:58.295Z,1.20
2022-12-19T17:41:25.581Z,1.20
2022-12-19T17:43:52.312Z,1.10
2022-12-19T17:46:22.291Z,1.20
2022-12-19T17:48:51.921Z,1.20
2022-12-19T17:51:20.495Z,1.20
2022-12-19T17:53:47.399Z,1.20
2022-12-19T17:56:16.044Z,1.10
2022-12-19T17:58:43.298Z,1.10
2022-12-19T18:01:31.291Z,1.20
2022-12-19T18:03:59.658Z,1.10
2022-12-19T18:06:26.454Z,1.10
2022-12-19T18:08:53.386Z,1.00
2022-12-19T18:11:22.979Z,1.10
2022-12-19T18:13:50.043Z,1.00
2022-12-19T18:16:20.815Z,1.00
2022-12-19T18:18:48.175Z,1.00
2022-12-19T18:21:17.907Z,0.90
2022-12-19T18:23:44.937Z,0.90
2022-12-19T18:26:13.035Z,0.80
2022-12-19T18:28:42.850Z,0.80
2022-12-19T18:31:17.945Z,0.80
2022-12-19T18:33:47.253Z,0.80
2022-12-19T18:36:19.386Z,0.70
2022-12-19T18:38:46.898Z,0.60
2022-12-19T18:41:13.671Z,0.60
2022-12-19T18:43:40.588Z,0.60
2022-12-19T18:46:11.784Z,0.60
2022-12-19T18:48:38.573Z,0.60
2022-12-19T18:51:05.968Z,0.70
2022-12-19T18:53:35.744Z,0.70
2022-12-19T18:56:04.817Z,0.60
2022-12-19T18:58:32.198Z,0.60
2022-12-19T19:01:00.443Z,0.60
2022-12-19T19:03:37.287Z,0.60
2022-12-19T19:06:06.480Z,0.60
2022-12-19T19:08:34.731Z,0.50
2022-12-19T19:11:01.815Z,0.40
2022-12-19T19:13:29.665Z,0.40
2022-12-19T19:16:01.564Z,0.40
2022-12-19T19:18:40.138Z,0.40
2022-12-19T19:21:10.940Z,0.40
2022-12-19T19:23:43.461Z,0.40
2022-12-19T19:26:10.277Z,0.50
2022-12-19T19:28:39.901Z,0.50
2022-12-19T19:31:10.991Z,0.60
2022-12-19T19:33:46.333Z,0.50
2022-12-19T19:36:20.348Z,0.50
2022-12-19T19:38:51.246Z,0.50
2022-12-19T19:41:18.038Z,0.40
2022-12-19T19:43:44.819Z,0.40
2022-12-19T19:46:15.208Z,0.50
2022-12-19T19:48:42.674Z,0.50
2022-12-19T19:51:09.738Z,0.50
2022-12-19T19:53:36.494Z,0.40
2022-12-19T19:56:04.836Z,0.40
2022-12-19T19:58:32.159Z,0.30
2022-12-19T20:00:59.202Z,0.40
2022-12-19T20:03:26.618Z,0.30
2022-12-19T20:06:01.055Z,0.20
2022-12-19T20:08:30.971Z,0.20
2022-12-19T20:11:00.589Z,0.20
2022-12-19T20:13:29.797Z,0.20
2022-12-19T20:16:04.733Z,0.10
2022-12-19T20:18:31.729Z,0.10
2022-12-19T20:20:58.529Z,0.10
2022-12-19T20:23:25.412Z,0.10
2022-12-19T20:25:52.297Z,0.10
2022-12-19T20:28:19.149Z,0.00
2022-12-19T20:30:47.174Z,0.10
2022-12-19T20:33:14.079Z,0.00
2022-12-19T20:35:40.880Z,0.00
2022-12-19T20:38:07.586Z,0.00
2022-12-19T20:40:34.329Z,0.00
2022-12-19T20:43:01.124Z,0.00
2022-12-19T20:45:28.019Z,-0.10
2022-12-19T20:47:55.319Z,-0.10
2022-12-19T20:50:22.430Z,-0.10
2022-12-19T20:52:49.154Z,-0.10
2022-12-19T20:55:15.990Z,-0.10
2022-12-19T20:57:42.681Z,-0.10
2022-12-19T21:00:10.521Z,-0.10
2022-12-19T21:03:16.716Z,-0.10
2022-12-19T21:05:24.030Z,-0.10
2022-12-19T21:07:50.780Z,0.00
2022-12-19T21:10:17.566Z,-0.10
2022-12-19T21:12:47.843Z,-0.10
2022-12-19T21:15:15.500Z,-0.10
2022-12-19T21:17:42.386Z,-0.20
2022-12-19T21:20:09.893Z,-0.10
2022-12-19T21:22:36.757Z,-0.20
2022-12-19T21:25:04.200Z,-0.20
2022-12-19T21:27:30.949Z,-0.20
2022-12-19T21:29:57.703Z,-0.10
2022-12-19T21:32:24.429Z,0.00
2022-12-19T21:34:53.162Z,-0.10
2022-12-19T21:37:20.036Z,0.00
2022-12-19T21:39:46.731Z,0.00
2022-12-19T21:42:13.452Z,0.10
2022-12-19T21:44:40.211Z,0.20
2022-12-19T21:47:06.988Z,0.30
2022-12-19T21:49:33.751Z,0.30
2022-12-19T21:52:00.452Z,0.30
2022-12-19T21:54:27.145Z,0.30
2022-12-19T21:56:53.908Z,0.30
2022-12-19T21:59:20.625Z,0.30
2022-12-19T22:01:47.611Z,0.30
2022-12-19T22:04:20.651Z,0.30
2022-12-19T22:06:50.127Z,0.30
2022-12-19T22:09:19.328Z,0.40
2022-12-19T22:11:46.354Z,0.30
2022-12-19T22:14:14.658Z,0.30
2022-12-19T22:16:41.737Z,0.20
2022-12-19T22:19:09.888Z,0.20
2022-12-19T22:21:37.097Z,0.20
2022-12-19T22:24:04.712Z,0.10
2022-12-19T22:26:32.358Z,0.00
2022-12-19T22:28:59.445Z,0.00
2022-12-19T22:31:32.017Z,0.00
2022-12-19T22:34:16.443Z,-0.10
2022-12-19T22:36:44.475Z,-0.10
2022-12-19T22:39:16.366Z,-0.20
2022-12-19T22:41:43.302Z,-0.30
2022-12-19T22:44:17.147Z,-0.30
2022-12-19T22:46:44.181Z,-0.40
2022-12-19T22:49:12.411Z,-0.40
2022-12-19T22:51:39.776Z,-0.40
2022-12-19T22:54:06.942Z,-0.30
2022-12-19T22:56:34.679Z,-0.30
2022-12-19T22:59:04.489Z,-0.20
2022-12-19T23:01:37.468Z,-0.10
2022-12-19T23:04:06.211Z,0.10
2022-12-19T23:06:35.848Z,0.10
2022-12-19T23:09:03.662Z,0.20
2022-12-19T23:11:34.123Z,0.20
2022-12-19T23:14:02.247Z,0.20
2022-12-19T23:16:29.156Z,0.20
2022-12-19T23:18:56.006Z,0.20
2022-12-19T23:21:24.597Z,0.10
2022-12-19T23:23:53.901Z,0.20
2022-12-19T23:26:33.099Z,0.10
2022-12-19T23:29:02.467Z,0.10
2022-12-19T23:31:30.008Z,0.20
2022-12-19T23:33:57.664Z,0.20
2022-12-19T23:37:00.367Z,0.20
2022-12-19T23:39:12.540Z,0.30
2022-12-19T23:41:40.049Z,0.40
2022-12-19T23:44:07.195Z,0.40
2022-12-19T23:46:33.912Z,0.50
2022-12-19T23:49:00.710Z,0.50
2022-12-19T23:51:28.721Z,0.60
2022-12-19T23:53:56.489Z,0.60
2022-12-19T23:56:24.559Z,0.60
2022-12-19T23:58:51.752Z,0.40
